Time;durP1;ratioP1;P1;durP2;ratioP2;P2;SDS_P1;SDS_P2;PMS_P1;PMS_P2;Temp;Humidity;BMP_temperature;BMP_pressure;BME280_temperature;BME280_humidity;BME280_pressure;Samples;Min_cycle;Max_cycle;Signal;HPM_P1;HPM_P2
2023/10/21 00:00:03;;;;;;;30.62;4.37;;;;;;;22.41;47.96;97731.50;4402302;32;33912;-68
2023/10/21 00:02:38;;;;;;;21.02;7.22;;;;;;;22.35;48.10;97728.91;4402281;32;33620;-67
2023/10/21 00:05:06;;;;;;;14.25;4.20;;;;;;;22.55;47.45;97724.72;4402039;32;34677;-67
2023/10/21 00:07:33;;;;;;;16.35;5.30;;;;;;;22.62;47.23;97721.03;4404016;32;35060;-67
2023/10/21 00:10:01;;;;;;;19.62;4.90;;;;;;;22.67;47.02;97724.69;4403010;32;35285;-67
2023/10/21 00:12:29;;;;;;;17.95;5.03;;;;;;;22.54;47.09;97728.50;4403078;32;33640;-67
2023/10/21 00:14:56;;;;;;;17.92;5.18;;;;;;;22.60;46.90;97724.00;4403296;32;33474;-67
2023/10/21 00:17:26;;;;;;;15.98;4.78;;;;;;;22.69;46.79;97732.59;4402768;32;34976;-67
2023/10/21 00:19:54;;;;;;;14.43;4.78;;;;;;;22.65;46.74;97734.16;4403765;32;35024;-67
2023/10/21 00:22:21;;;;;;;13.43;4.65;;;;;;;22.78;46.51;97750.25;4403514;32;33271;-68
2023/10/21 00:24:49;;;;;;;15.98;4.68;;;;;;;22.72;46.56;97749.31;4401751;32;34023;-67
2023/10/21 00:27:17;;;;;;;13.23;4.18;;;;;;;22.55;46.66;97746.53;4402282;32;32525;-68
2023/10/21 00:29:45;;;;;;;16.23;4.75;;;;;;;22.85;46.23;97733.75;4405152;32;34032;-67
2023/10/21 00:32:12;;;;;;;17.12;4.45;;;;;;;22.82;46.08;97736.97;4405778;32;33252;-67
2023/10/21 00:34:40;;;;;;;8.50;4.00;;;;;;;22.73;46.35;97737.34;4406889;32;33727;-67
2023/10/21 00:37:08;;;;;;;14.90;3.55;;;;;;;23.06;45.65;97737.75;4404843;32;35089;-67
2023/10/21 00:39:35;;;;;;;12.80;4.32;;;;;;;23.09;45.53;97734.53;4406307;32;33822;-67
2023/10/21 00:42:04;;;;;;;15.18;4.65;;;;;;;23.21;45.48;97738.00;4405855;32;33333;-67
2023/10/21 00:44:32;;;;;;;23.48;7.37;;;;;;;23.12;45.48;97747.69;4393264;32;33291;-67
2023/10/21 00:47:00;;;;;;;14.55;5.75;;;;;;;23.09;45.56;97750.91;4405306;32;33516;-68
2023/10/21 00:49:28;;;;;;;18.87;5.25;;;;;;;23.23;45.16;97757.72;4404132;32;34305;-67
2023/10/21 00:51:56;;;;;;;17.27;5.45;;;;;;;23.15;45.13;97748.03;4405792;32;33684;-68
2023/10/21 00:54:27;;;;;;;13.30;3.90;;;;;;;23.30;45.10;97746.63;4373647;32;35840;-68
2023/10/21 00:56:55;;;;;;;15.23;5.85;;;;;;;23.43;45.11;97760.78;4369369;32;35045;-68
2023/10/21 00:59:23;;;;;;;18.85;6.03;;;;;;;23.43;45.01;97754.50;4371544;32;34194;-67
2023/10/21 01:01:51;;;;;;;19.00;6.62;;;;;;;23.25;45.20;97763.75;4370795;32;33212;-68
2023/10/21 01:04:21;;;;;;;15.63;5.82;;;;;;;23.11;45.48;97762.38;4372991;32;33463;-68
2023/10/21 01:06:49;;;;;;;20.35;5.68;;;;;;;23.33;44.94;97768.81;4371747;32;33822;-67
2023/10/21 01:09:18;;;;;;;12.80;4.15;;;;;;;23.36;44.70;97760.13;4370233;32;33596;-68
2023/10/21 01:11:46;;;;;;;17.20;5.10;;;;;;;23.24;44.90;97771.12;4371190;32;34690;-68
2023/10/21 01:14:14;;;;;;;11.55;4.70;;;;;;;23.35;44.54;97763.13;4372754;32;34709;-67
2023/10/21 01:16:41;;;;;;;22.65;6.07;;;;;;;23.39;44.43;97765.09;4370879;32;33741;-68
2023/10/21 01:19:09;;;;;;;21.42;5.90;;;;;;;23.39;44.47;97767.84;4372197;32;33777;-68
2023/10/21 01:21:37;;;;;;;18.30;6.97;;;;;;;23.43;44.41;97760.78;4370132;32;34579;-68
2023/10/21 01:24:04;;;;;;;14.77;5.82;;;;;;;23.31;44.57;97757.31;4372220;32;32331;-67
2023/10/21 01:26:33;;;;;;;13.30;5.25;;;;;;;23.07;45.03;97767.50;4362110;32;33925;-68
2023/10/21 01:29:00;;;;;;;18.23;5.85;;;;;;;23.01;45.25;97763.84;4370743;32;35155;-68
2023/10/21 01:31:29;;;;;;;10.63;4.03;;;;;;;23.14;44.94;97775.53;4370325;32;34530;-68
2023/10/21 01:33:57;;;;;;;8.50;3.97;;;;;;;23.21;44.67;97779.81;4372097;32;33972;-68
2023/10/21 01:36:25;;;;;;;11.75;4.80;;;;;;;23.16;44.89;97781.59;4372450;32;34318;-67
2023/10/21 01:38:52;;;;;;;9.88;4.40;;;;;;;23.16;44.86;97779.69;4398005;32;33429;-67
2023/10/21 01:41:20;;;;;;;15.07;5.32;;;;;;;23.31;44.51;97775.59;4404756;32;33229;-67
2023/10/21 01:43:48;;;;;;;17.83;5.75;;;;;;;22.60;45.98;97777.69;4403831;32;33593;-67
2023/10/21 01:46:16;;;;;;;17.58;6.68;;;;;;;22.92;45.47;97767.16;4402782;32;34230;-67
2023/10/21 01:48:44;;;;;;;14.95;4.20;;;;;;;23.17;44.79;97773.16;4404330;32;33994;-67
2023/10/21 01:51:13;;;;;;;13.82;3.95;;;;;;;23.13;45.08;97765.72;4405807;32;33680;-67
2023/10/21 01:53:40;;;;;;;11.38;3.53;;;;;;;22.87;45.42;97778.81;4405095;32;33503;-67
2023/10/21 01:56:08;;;;;;;22.52;4.47;;;;;;;23.08;45.01;97784.69;4405548;32;34628;-67
2023/10/21 01:58:36;;;;;;;19.20;5.78;;;;;;;23.31;44.57;97781.06;4405441;32;33799;-67
2023/10/21 02:01:08;;;;;;;13.80;4.57;;;;;;;23.34;44.50;97784.13;4405179;32;34595;-67
2023/10/21 02:03:36;;;;;;;15.73;6.15;;;;;;;23.06;45.24;97786.84;4385860;32;34946;-67
2023/10/21 02:06:06;;;;;;;19.75;6.47;;;;;;;22.93;45.44;97791.50;4390963;32;35848;-67
2023/10/21 02:08:34;;;;;;;13.90;4.72;;;;;;;22.90;45.42;97807.50;4388831;32;34896;-67
2023/10/21 02:11:02;;;;;;;17.48;6.47;;;;;;;22.84;45.70;97809.28;4390178;32;32266;-67
2023/10/21 02:13:29;;;;;;;8.35;4.47;;;;;;;23.11;45.04;97814.22;4388431;32;34044;-68
2023/10/21 02:15:57;;;;;;;13.90;4.97;;;;;;;23.25;44.70;97827.34;4391696;32;34051;-67
2023/10/21 02:18:25;;;;;;;13.05;4.40;;;;;;;23.45;44.21;97818.72;4390020;32;34201;-67
2023/10/21 02:20:55;;;;;;;14.38;5.47;;;;;;;23.16;44.88;97830.72;4389749;32;33906;-68
2023/10/21 02:23:22;;;;;;;11.38;4.37;;;;;;;23.38;44.47;97839.06;4389219;32;34068;-67
2023/10/21 02:26:08;;;;;;;18.37;8.05;;;;;;;23.53;44.12;97836.63;4391033;32;35026;-67
2023/10/21 02:28:36;;;;;;;12.88;5.15;;;;;;;23.29;44.56;97851.44;4389202;32;34910;-67
2023/10/21 02:31:03;;;;;;;18.40;6.28;;;;;;;23.51;44.15;97846.13;4390784;32;33454;-68
2023/10/21 02:33:31;;;;;;;13.10;4.28;;;;;;;23.24;44.78;97849.41;4389140;32;33717;-67
2023/10/21 02:35:59;;;;;;;10.15;3.90;;;;;;;23.37;44.59;97851.87;4391028;32;35851;-67
2023/10/21 02:38:26;;;;;;;12.43;4.10;;;;;;;23.32;45.11;97835.41;4390876;32;35180;-67
2023/10/21 02:40:54;;;;;;;13.45;4.65;;;;;;;23.19;45.10;97839.25;4390807;32;33295;-67
2023/10/21 02:43:22;;;;;;;14.93;4.55;;;;;;;23.09;45.44;97840.94;4389794;32;34759;-67
2023/10/21 02:45:49;;;;;;;10.13;4.15;;;;;;;22.89;45.97;97833.97;4390418;32;33884;-67
2023/10/21 02:48:17;;;;;;;12.90;4.15;;;;;;;22.46;47.13;97837.91;4390637;32;33926;-67
2023/10/21 02:50:45;;;;;;;12.45;5.05;;;;;;;22.44;47.21;97837.34;4390469;32;32443;-67
2023/10/21 02:53:13;;;;;;;12.65;5.12;;;;;;;22.15;48.10;97839.06;4389774;32;35038;-67
2023/10/21 02:55:41;;;;;;;17.25;5.47;;;;;;;21.87;48.97;97843.28;4390131;32;34077;-67
2023/10/21 02:58:08;;;;;;;11.27;3.67;;;;;;;21.99;48.80;97837.00;4391169;32;35542;-67
2023/10/21 03:00:36;;;;;;;11.27;4.93;;;;;;;22.37;47.96;97846.66;4389040;32;33322;-67
2023/10/21 03:03:04;;;;;;;10.57;3.92;;;;;;;22.63;47.30;97840.75;4394683;32;33686;-68
2023/10/21 03:05:32;;;;;;;20.08;5.12;;;;;;;22.84;46.76;97850.19;4404102;32;34649;-68
2023/10/21 03:08:00;;;;;;;17.80;5.53;;;;;;;22.68;47.10;97846.31;4404956;32;34970;-67
2023/10/21 03:10:28;;;;;;;17.37;5.18;;;;;;;22.61;47.46;97861.16;4405370;32;33670;-68
2023/10/21 03:12:56;;;;;;;12.55;5.45;;;;;;;22.82;46.86;97863.25;4405248;32;33931;-68
2023/10/21 03:15:23;;;;;;;16.37;5.32;;;;;;;23.13;46.17;97861.22;4403471;32;32510;-68
2023/10/21 03:17:52;;;;;;;19.90;6.22;;;;;;;23.18;46.05;97861.34;4405474;32;33760;-68
2023/10/21 03:20:19;;;;;;;14.93;3.83;;;;;;;22.95;46.65;97875.81;4405684;32;33702;-68
2023/10/21 03:22:47;;;;;;;23.50;5.72;;;;;;;22.92;46.87;97879.00;4404818;32;33968;-68
2023/10/21 03:25:15;;;;;;;17.67;6.15;;;;;;;23.07;46.49;97864.91;4404412;32;34072;-68
2023/10/21 03:27:43;;;;;;;9.60;3.72;;;;;;;23.00;46.78;97867.75;4404965;32;33855;-68
2023/10/21 03:30:10;;;;;;;17.30;5.87;;;;;;;22.79;47.11;97869.16;4405284;32;33664;-68
2023/10/21 03:32:38;;;;;;;15.27;5.65;;;;;;;22.94;46.83;97872.28;4404650;32;34577;-67
2023/10/21 03:35:06;;;;;;;26.87;4.65;;;;;;;22.56;47.90;97868.13;4402502;32;35122;-66
2023/10/21 03:37:34;;;;;;;15.07;5.12;;;;;;;21.99;49.78;97876.00;4405435;32;34435;-66
2023/10/21 03:40:05;;;;;;;18.95;4.57;;;;;;;21.79;50.30;97868.09;4402360;32;34340;-67
2023/10/21 03:42:33;;;;;;;18.25;4.85;;;;;;;22.03;49.55;97879.91;4400611;32;34018;-66
2023/10/21 03:45:01;;;;;;;12.13;4.75;;;;;;;22.18;49.12;97876.75;4404351;32;35015;-66
2023/10/21 03:47:30;;;;;;;13.18;4.15;;;;;;;22.30;48.88;97871.31;4390698;32;33912;-66
2023/10/21 03:49:57;;;;;;;10.65;3.80;;;;;;;21.99;49.88;97886.03;4402870;32;33732;-66
2023/10/21 03:52:25;;;;;;;8.77;3.55;;;;;;;22.01;50.02;97886.62;4404906;32;35233;-66
2023/10/21 03:54:53;;;;;;;10.13;3.53;;;;;;;21.71;50.75;97898.41;4404840;32;35060;-66
2023/10/21 03:57:21;;;;;;;16.60;4.72;;;;;;;21.90;50.47;97914.69;4405404;32;34561;-66
2023/10/21 03:59:49;;;;;;;13.43;4.55;;;;;;;22.30;49.37;97923.09;4404588;32;35089;-66
2023/10/21 04:02:17;;;;;;;13.95;4.57;;;;;;;21.97;50.30;97924.41;4392191;32;34828;-66
2023/10/21 04:04:45;;;;;;;20.40;5.80;;;;;;;21.89;50.71;97935.63;4405725;32;34041;-66
2023/10/21 04:07:13;;;;;;;11.60;3.67;;;;;;;22.09;50.35;97944.34;4406486;32;35054;-66
2023/10/21 04:09:40;;;;;;;18.48;4.18;;;;;;;22.02;50.31;97943.63;4405834;32;33280;-66
2023/10/21 04:12:09;;;;;;;9.73;4.28;;;;;;;22.07;50.05;97938.28;4407029;32;33861;-66
2023/10/21 04:14:36;;;;;;;12.18;4.22;;;;;;;21.58;51.19;97942.13;4407000;32;34109;-66
2023/10/21 04:17:05;;;;;;;14.57;4.32;;;;;;;21.66;50.95;97946.44;4405672;32;34440;-66
2023/10/21 04:19:33;;;;;;;13.23;5.15;;;;;;;21.52;51.49;97949.31;4401417;32;33444;-67
2023/10/21 04:22:00;;;;;;;17.90;3.75;;;;;;;20.98;53.75;97961.00;4404232;32;33686;-68
2023/10/21 04:24:28;;;;;;;9.77;2.97;;;;;;;20.90;54.38;97964.84;4404428;32;35317;-68
2023/10/21 04:26:55;;;;;;;11.50;4.15;;;;;;;21.02;55.15;97952.16;4408077;32;33961;-68
2023/10/21 04:29:23;;;;;;;17.65;4.05;;;;;;;20.58;57.95;97969.53;4405039;32;33309;-67
2023/10/21 04:31:52;;;;;;;15.38;3.87;;;;;;;20.42;59.22;97960.84;4405420;32;34997;-69
2023/10/21 04:34:20;;;;;;;21.73;4.62;;;;;;;20.50;59.85;97967.88;4393226;32;33819;-67
2023/10/21 04:36:48;;;;;;;26.50;5.87;;;;;;;20.41;61.35;97972.75;4405987;32;33522;-67
2023/10/21 04:39:16;;;;;;;13.50;3.90;;;;;;;20.55;61.20;97968.09;4404607;32;34631;-68
2023/10/21 04:41:48;;;;;;;12.55;3.55;;;;;;;20.59;61.19;97977.47;4368379;32;33441;-67
2023/10/21 04:44:15;;;;;;;12.00;3.47;;;;;;;20.30;62.33;97997.09;4362242;32;33841;-69
2023/10/21 04:46:43;;;;;;;9.25;2.65;;;;;;;20.39;62.88;97996.63;4372503;32;34853;-69
2023/10/21 04:49:11;;;;;;;10.45;2.58;;;;;;;20.38;63.59;97997.66;4369186;32;33673;-70
2023/10/21 04:51:39;;;;;;;9.40;3.05;;;;;;;20.31;64.61;98010.44;4375179;32;33315;-70
2023/10/21 04:54:07;;;;;;;10.43;2.95;;;;;;;20.45;64.57;98008.50;4364359;32;33970;-70
2023/10/21 04:56:35;;;;;;;15.35;3.47;;;;;;;20.16;65.70;98013.50;4364216;32;33481;-70
2023/10/21 04:59:03;;;;;;;9.43;3.28;;;;;;;20.21;66.81;98031.84;4359392;32;33343;-70
2023/10/21 05:01:32;;;;;;;14.38;3.97;;;;;;;20.30;66.87;98035.97;4359041;32;34997;-71
2023/10/21 05:04:00;;;;;;;10.05;3.33;;;;;;;20.15;68.34;98047.09;4370535;32;34574;-70
2023/10/21 05:06:28;;;;;;;11.88;3.47;;;;;;;19.83;70.42;98040.78;4369382;32;34243;-71
2023/10/21 05:08:56;;;;;;;7.82;2.15;;;;;;;19.84;70.75;98036.19;4380169;32;34670;-69
2023/10/21 05:11:24;;;;;;;9.73;2.58;;;;;;;19.64;71.78;98033.56;4370258;32;33898;-69
2023/10/21 05:13:51;;;;;;;8.30;2.40;;;;;;;19.51;73.01;98029.81;4371912;32;32997;-69
2023/10/21 05:16:19;;;;;;;11.18;2.33;;;;;;;19.27;74.81;98025.94;4373961;32;33981;-69
2023/10/21 05:18:47;;;;;;;8.60;2.90;;;;;;;19.59;73.30;98020.63;4379497;32;33204;-69
2023/10/21 05:21:15;;;;;;;11.68;3.25;;;;;;;19.50;73.70;98001.03;4395676;32;34727;-69
2023/10/21 05:23:42;;;;;;;4.15;2.20;;;;;;;19.60;73.68;98011.41;4406748;32;34069;-69
2023/10/21 05:26:10;;;;;;;11.90;2.75;;;;;;;19.59;73.81;98023.34;4407393;32;34216;-69
2023/10/21 05:28:38;;;;;;;13.07;3.37;;;;;;;19.07;76.22;98014.28;4403106;32;33145;-68
2023/10/21 05:31:07;;;;;;;5.30;2.15;;;;;;;19.29;75.86;98001.28;4402752;32;34362;-68
2023/10/21 05:33:35;;;;;;;7.40;2.30;;;;;;;19.82;73.54;97995.69;4404278;32;34221;-69
2023/10/21 05:36:03;;;;;;;10.10;2.25;;;;;;;19.98;72.57;98006.06;4400921;32;34195;-68
2023/10/21 05:38:31;;;;;;;16.25;3.17;;;;;;;19.70;73.59;98000.12;4400983;32;33444;-71
2023/10/21 05:40:58;;;;;;;10.35;2.33;;;;;;;19.79;73.41;98007.00;4402388;32;33573;-70
2023/10/21 05:43:26;;;;;;;5.93;2.35;;;;;;;19.87;72.73;98004.03;4406068;32;34243;-70
2023/10/21 05:45:53;;;;;;;7.45;2.28;;;;;;;20.14;71.05;98002.00;4403341;32;33672;-70
2023/10/21 05:48:21;;;;;;;16.98;3.92;;;;;;;20.20;71.01;98014.72;4405213;32;33317;-71
2023/10/21 05:50:49;;;;;;;5.82;1.95;;;;;;;20.32;70.79;98033.87;4405245;32;33963;-70
2023/10/21 05:53:16;;;;;;;16.12;2.97;;;;;;;20.30;70.59;98038.69;4404238;32;35161;-69
2023/10/21 05:55:44;;;;;;;11.20;3.92;;;;;;;20.07;71.36;98046.56;4405906;32;33925;-69
2023/10/21 05:58:12;;;;;;;11.95;2.47;;;;;;;20.19;70.47;98055.66;4404615;32;34524;-69
2023/10/21 06:00:39;;;;;;;6.25;2.12;;;;;;;20.27;70.29;98062.72;4405336;32;33508;-69
2023/10/21 06:03:07;;;;;;;5.82;2.35;;;;;;;20.27;70.26;98082.56;4405739;32;34155;-68
2023/10/21 06:05:35;;;;;;;5.70;1.83;;;;;;;20.52;68.95;98082.69;4403687;32;35213;-69
2023/10/21 06:08:04;;;;;;;9.98;3.10;;;;;;;20.43;69.73;98092.94;4402975;32;33643;-69
2023/10/21 06:10:32;;;;;;;7.55;1.80;;;;;;;19.95;71.65;98111.56;4390824;32;33680;-69
2023/10/21 06:13:00;;;;;;;9.27;2.85;;;;;;;20.11;71.17;98113.78;4403039;32;33296;-69
2023/10/21 06:15:28;;;;;;;18.75;2.92;;;;;;;19.85;72.16;98127.47;4400793;32;33806;-68
2023/10/21 06:17:56;;;;;;;8.00;3.20;;;;;;;19.91;71.77;98143.75;4403506;32;33807;-69
2023/10/21 06:20:24;;;;;;;6.60;2.15;;;;;;;19.66;72.49;98140.03;4401831;32;33356;-69
2023/10/21 06:22:51;;;;;;;13.13;3.00;;;;;;;19.67;72.53;98133.56;4357406;32;33859;-69
2023/10/21 06:25:19;;;;;;;6.40;2.60;;;;;;;19.52;73.28;98133.78;4365562;32;33838;-69
2023/10/21 06:27:46;;;;;;;10.43;2.35;;;;;;;19.33;73.87;98148.19;4359539;32;33477;-69
2023/10/21 06:30:14;;;;;;;16.08;3.00;;;;;;;19.24;74.08;98150.28;4357415;32;34287;-70
2023/10/21 06:32:42;;;;;;;7.45;3.00;;;;;;;18.96;75.58;98148.59;4357973;32;33749;-69
2023/10/21 06:35:09;;;;;;;6.28;2.20;;;;;;;19.02;74.85;98155.91;4357806;32;33883;-68
2023/10/21 06:37:37;;;;;;;6.70;2.55;;;;;;;18.95;75.35;98168.62;4361730;32;33322;-69
2023/10/21 06:40:06;;;;;;;12.75;2.22;;;;;;;19.32;73.55;98169.03;4359868;32;33543;-69
2023/10/21 06:42:34;;;;;;;9.35;2.10;;;;;;;18.83;75.80;98172.97;4357235;32;34930;-70
2023/10/21 06:45:02;;;;;;;4.95;1.92;;;;;;;18.92;75.95;98179.03;4357787;32;33844;-69
2023/10/21 06:47:32;;;;;;;7.80;2.92;;;;;;;19.20;74.27;98171.56;4352397;32;33671;-69
2023/10/21 06:49:59;;;;;;;7.32;1.85;;;;;;;19.61;72.53;98192.19;4358500;32;33372;-69
2023/10/21 06:52:27;;;;;;;5.93;2.37;;;;;;;18.96;75.06;98186.53;4360833;32;33921;-69
2023/10/21 06:54:55;;;;;;;5.95;2.10;;;;;;;19.20;74.37;98182.41;4366103;32;34986;-69
2023/10/21 06:57:22;;;;;;;7.70;2.28;;;;;;;19.06;74.70;98194.28;4365638;32;33238;-69
2023/10/21 06:59:52;;;;;;;9.35;2.00;;;;;;;18.84;75.96;98199.88;4368924;32;34731;-69
2023/10/21 07:02:20;;;;;;;8.98;2.15;;;;;;;18.86;76.23;98199.66;4375851;32;118460;-70
2023/10/21 07:04:47;;;;;;;6.15;1.75;;;;;;;19.08;75.29;98194.91;4393747;32;33799;-70
2023/10/21 07:07:15;;;;;;;11.20;2.70;;;;;;;19.08;74.99;98209.31;4396102;32;33817;-70
2023/10/21 07:09:44;;;;;;;7.20;2.35;;;;;;;18.70;76.58;98195.44;4379581;32;33629;-69
2023/10/21 07:12:12;;;;;;;8.27;2.25;;;;;;;18.81;76.22;98194.87;4387297;32;34002;-70
2023/10/21 07:14:40;;;;;;;14.80;2.28;;;;;;;18.84;75.69;98199.03;4374796;32;34790;-69
2023/10/21 07:17:08;;;;;;;6.53;2.15;;;;;;;18.98;75.66;98208.88;4389717;32;34797;-71
2023/10/21 07:19:35;;;;;;;5.62;2.50;;;;;;;19.07;75.04;98207.66;4378535;32;34139;-70
2023/10/21 07:22:04;;;;;;;8.55;2.45;;;;;;;18.91;75.37;98208.03;4384621;32;35372;-71
2023/10/21 07:24:32;;;;;;;9.80;2.75;;;;;;;19.21;73.96;98199.50;4391455;32;34040;-70
2023/10/21 07:27:01;;;;;;;11.40;3.58;;;;;;;18.72;76.43;98217.78;4394504;32;34315;-67
2023/10/21 07:29:28;;;;;;;4.87;2.12;;;;;;;18.59;76.93;98223.13;4390821;32;34379;-67
2023/10/21 07:31:56;;;;;;;8.82;2.17;;;;;;;18.54;76.73;98231.84;4389590;32;34624;-67
2023/10/21 07:34:24;;;;;;;6.47;1.85;;;;;;;18.56;77.36;98239.78;4387273;32;34568;-67
2023/10/21 07:36:51;;;;;;;6.15;2.03;;;;;;;18.72;76.34;98247.59;4395657;32;33030;-67
2023/10/21 07:39:19;;;;;;;8.25;2.33;;;;;;;18.41;77.55;98249.94;4388452;32;34775;-67
2023/10/21 07:41:47;;;;;;;4.10;1.80;;;;;;;18.78;75.94;98244.06;4389129;32;33815;-67
2023/10/21 07:44:14;;;;;;;7.28;2.17;;;;;;;18.88;75.41;98256.41;4387078;32;34755;-67
2023/10/21 07:46:46;;;;;;;8.85;2.22;;;;;;;18.91;74.93;98256.84;4388815;32;34625;-66
2023/10/21 07:49:13;;;;;;;4.80;1.52;;;;;;;18.54;76.41;98266.25;4389028;32;35086;-68
2023/10/21 07:51:40;;;;;;;8.57;1.85;;;;;;;18.52;77.05;98271.87;4386678;32;34027;-69
2023/10/21 07:54:08;;;;;;;4.35;1.33;;;;;;;18.66;76.17;98277.34;4397381;32;34236;-69
2023/10/21 07:56:37;;;;;;;4.43;1.45;;;;;;;18.54;75.93;98272.50;4387430;32;34963;-69
2023/10/21 07:59:05;;;;;;;5.45;2.05;;;;;;;18.68;75.67;98276.09;4388395;32;33663;-68
2023/10/21 08:01:33;;;;;;;5.25;1.25;;;;;;;18.55;76.04;98278.75;4388454;32;35023;-69
2023/10/21 08:04:01;;;;;;;4.32;1.37;;;;;;;18.55;76.26;98297.72;4403516;32;33601;-70
2023/10/21 08:06:30;;;;;;;5.00;2.55;;;;;;;18.68;76.03;98291.50;4402081;32;33502;-70
2023/10/21 08:08:57;;;;;;;8.52;1.37;;;;;;;18.63;75.88;98297.56;4387836;32;33383;-72
2023/10/21 08:11:25;;;;;;;4.57;1.85;;;;;;;18.80;75.02;98296.19;4401179;32;33537;-71
2023/10/21 08:13:53;;;;;;;3.60;1.42;;;;;;;18.74;74.88;98309.72;4403371;32;35885;-71
2023/10/21 08:16:20;;;;;;;3.72;1.55;;;;;;;18.65;75.46;98322.59;4403198;32;33358;-71
2023/10/21 08:18:50;;;;;;;3.78;1.70;;;;;;;18.62;76.62;98328.41;4402062;32;33626;-71
2023/10/21 08:21:18;;;;;;;2.53;1.35;;;;;;;18.94;74.45;98332.34;4400244;32;34940;-73
2023/10/21 08:23:45;;;;;;;9.48;1.87;;;;;;;18.84;74.59;98342.69;4401375;32;34090;-71
2023/10/21 08:26:13;;;;;;;3.12;1.60;;;;;;;18.96;74.68;98348.38;4402715;32;33653;-72
2023/10/21 08:28:41;;;;;;;6.95;2.08;;;;;;;19.32;73.23;98342.66;4404173;32;35074;-71
2023/10/21 08:31:08;;;;;;;7.57;1.17;;;;;;;19.05;74.01;98345.28;4401585;32;33274;-70
2023/10/21 08:33:36;;;;;;;5.70;1.27;;;;;;;19.20;73.59;98338.87;4400537;32;35281;-70
2023/10/21 08:36:04;;;;;;;3.10;1.10;;;;;;;19.26;73.26;98352.47;4396607;32;33539;-69
2023/10/21 08:38:32;;;;;;;8.55;1.70;;;;;;;19.44;72.41;98346.44;4403560;32;34935;-70
2023/10/21 08:40:59;;;;;;;4.30;1.95;;;;;;;18.95;74.33;98339.41;4404894;32;33717;-68
2023/10/21 08:43:27;;;;;;;3.83;2.10;;;;;;;19.31;73.10;98335.56;4403396;32;34048;-68
2023/10/21 08:45:55;;;;;;;5.45;1.90;;;;;;;19.09;73.40;98332.16;4407062;32;33654;-69
2023/10/21 08:48:25;;;;;;;5.68;1.52;;;;;;;18.95;74.19;98325.03;4403913;32;35018;-70
2023/10/21 08:50:53;;;;;;;3.30;1.45;;;;;;;18.88;74.92;98333.16;4371322;32;34154;-70
2023/10/21 08:53:21;;;;;;;5.50;1.85;;;;;;;19.09;73.86;98337.59;4325115;33;33972;-69
2023/10/21 08:55:49;;;;;;;4.47;1.25;;;;;;;18.93;74.87;98348.78;4326436;33;34425;-68
2023/10/21 08:58:17;;;;;;;5.68;2.45;;;;;;;19.02;74.65;98359.25;4315340;33;33997;-69
2023/10/21 09:00:44;;;;;;;5.45;2.12;;;;;;;18.82;75.82;98361.06;4326185;33;32232;-68
2023/10/21 09:03:14;;;;;;;1.67;0.95;;;;;;;19.41;73.10;98371.28;4327681;33;34167;-69
2023/10/21 09:06:06;;;;;;;5.22;1.45;;;;;;;18.73;76.00;98373.09;4329292;33;33113;-71
2023/10/21 09:08:36;;;;;;;10.93;1.73;;;;;;;18.71;75.96;98375.94;4320195;33;33429;-70
2023/10/21 09:11:07;;;;;;;6.03;2.28;;;;;;;18.61;76.81;98380.91;4326310;33;34906;-70
2023/10/21 09:13:36;;;;;;;2.80;1.05;;;;;;;18.57;76.93;98379.63;4327268;33;34833;-69
2023/10/21 09:16:17;;;;;;;5.80;1.35;;;;;;;18.82;75.59;98385.44;4327303;33;33528;-69
2023/10/21 09:18:56;;;;;;;6.40;1.42;;;;;;;18.67;76.17;98393.66;4327790;33;33664;-69
2023/10/21 09:21:38;;;;;;;2.92;0.93;;;;;;;18.83;75.77;98392.53;4331296;32;35296;-72
2023/10/21 09:24:09;;;;;;;1.98;0.93;;;;;;;18.60;76.80;98401.75;4353832;32;34152;-69
2023/10/21 09:26:38;;;;;;;4.80;1.10;;;;;;;18.34;78.43;98410.53;4362571;32;32719;-71
2023/10/21 09:29:19;;;;;;;3.53;1.17;;;;;;;18.34;79.25;98409.69;4364376;32;34595;-71
2023/10/21 09:31:53;;;;;;;3.55;0.95;;;;;;;18.51;79.66;98389.38;4367101;32;32132;-71
2023/10/21 09:34:27;;;;;;;3.45;1.08;;;;;;;18.22;80.79;98384.19;4359799;32;34098;-71
2023/10/21 09:36:56;;;;;;;3.12;0.73;;;;;;;18.36;80.61;98381.41;4367154;32;33450;-70
2023/10/21 09:39:26;;;;;;;1.65;0.93;;;;;;;18.56;78.99;98386.09;4367434;32;33744;-71
2023/10/21 09:41:54;;;;;;;4.82;1.40;;;;;;;18.36;80.54;98391.38;4366917;32;33805;-71
2023/10/21 09:44:21;;;;;;;5.32;1.08;;;;;;;18.38;80.76;98395.56;4372920;32;34434;-71
2023/10/21 09:46:50;;;;;;;4.40;1.15;;;;;;;18.45;80.16;98390.19;4372000;32;33504;-71
2023/10/21 09:49:19;;;;;;;4.53;0.90;;;;;;;18.54;79.58;98385.44;4369111;32;35179;-69
2023/10/21 09:51:47;;;;;;;3.83;1.00;;;;;;;18.67;78.82;98382.81;4370489;32;32893;-71
2023/10/21 09:54:21;;;;;;;1.95;0.80;;;;;;;18.83;77.84;98376.28;4368697;32;35127;-70
2023/10/21 09:56:53;;;;;;;2.67;0.90;;;;;;;19.02;77.01;98390.97;4374007;32;33535;-68
2023/10/21 09:59:22;;;;;;;2.37;0.88;;;;;;;18.84;77.55;98388.78;4386850;32;33931;-69
2023/10/21 10:01:52;;;;;;;2.58;0.77;;;;;;;18.82;77.07;98405.25;4377234;32;33791;-70
2023/10/21 10:04:21;;;;;;;2.22;1.58;;;;;;;19.04;76.56;98406.00;4400799;32;34228;-72
2023/10/21 10:07:05;;;;;;;1.15;0.62;;;;;;;19.12;76.08;98401.44;4396758;32;33565;-72
2023/10/21 10:09:37;;;;;;;3.12;1.23;;;;;;;19.38;74.70;98401.53;4393270;32;33500;-71
2023/10/21 10:12:10;;;;;;;4.12;1.05;;;;;;;19.11;76.17;98392.47;4390395;32;34282;-70
2023/10/21 10:14:38;;;;;;;10.48;1.33;;;;;;;19.08;76.42;98390.16;4390593;32;33875;-70
2023/10/21 10:17:06;;;;;;;4.15;1.00;;;;;;;19.10;75.83;98374.53;4388189;32;33518;-72
2023/10/21 10:19:40;;;;;;;4.03;1.30;;;;;;;19.55;73.86;98370.28;4404113;32;33695;-69
2023/10/21 10:22:19;;;;;;;3.45;1.48;;;;;;;19.53;73.84;98357.94;4400947;32;34021;-71
2023/10/21 10:24:51;;;;;;;2.47;0.60;;;;;;;19.71;72.62;98344.66;4403053;32;33943;-71
2023/10/21 10:27:19;;;;;;;3.83;1.30;;;;;;;19.47;73.92;98365.03;4390226;32;34637;-70
2023/10/21 10:29:50;;;;;;;5.78;1.42;;;;;;;19.81;73.36;98359.66;4404532;32;34051;-69
2023/10/21 10:32:20;;;;;;;5.72;0.73;;;;;;;19.69;73.58;98354.03;4399850;32;34854;-70
2023/10/21 10:34:55;;;;;;;13.85;2.75;;;;;;;19.64;73.91;98351.09;4401001;32;34346;-74
2023/10/21 10:37:37;;;;;;;5.40;1.90;;;;;;;19.68;73.19;98347.78;4400354;32;33237;-68
2023/10/21 10:40:18;;;;;;;6.45;1.77;;;;;;;19.88;71.84;98334.22;4400830;32;33244;-68
2023/10/21 10:42:46;;;;;;;7.62;1.80;;;;;;;19.69;73.26;98326.91;4402544;32;35842;-68
2023/10/21 10:45:14;;;;;;;4.78;2.00;;;;;;;19.68;73.21;98326.06;4406434;32;34961;-68
2023/10/21 10:47:43;;;;;;;5.60;2.25;;;;;;;20.06;71.98;98340.88;4402252;32;34389;-68
2023/10/21 10:50:19;;;;;;;5.82;1.67;;;;;;;19.78;72.16;98339.22;4403488;32;32417;-68
2023/10/21 10:52:47;;;;;;;8.10;1.80;;;;;;;19.81;72.74;98349.69;4401237;32;35185;-68
2023/10/21 10:55:15;;;;;;;3.33;1.17;;;;;;;19.95;71.94;98362.19;4404910;32;33765;-68
2023/10/21 10:57:43;;;;;;;6.05;1.33;;;;;;;19.91;72.62;98373.69;4388164;32;33003;-69
2023/10/21 11:00:20;;;;;;;9.18;1.48;;;;;;;19.65;72.96;98378.06;4401575;32;33686;-69
2023/10/21 11:02:49;;;;;;;6.62;1.85;;;;;;;19.45;74.92;98380.66;4393344;32;33862;-69
2023/10/21 11:05:21;;;;;;;4.57;2.15;;;;;;;20.05;72.69;98364.50;4386733;32;33673;-69
2023/10/21 11:07:54;;;;;;;3.58;1.48;;;;;;;20.20;71.88;98359.69;4376127;32;34152;-68
2023/10/21 11:10:24;;;;;;;4.62;1.40;;;;;;;19.78;74.35;98369.91;4374050;32;34660;-68
2023/10/21 11:12:52;;;;;;;6.15;2.10;;;;;;;19.72;74.93;98378.06;4373606;32;34885;-68
2023/10/21 11:15:20;;;;;;;7.35;2.10;;;;;;;19.81;75.36;98384.97;4374543;32;35166;-70
2023/10/21 11:17:50;;;;;;;7.03;1.52;;;;;;;19.44;76.29;98403.41;4371760;32;32236;-69
2023/10/21 11:20:19;;;;;;;6.10;2.20;;;;;;;20.00;73.67;98405.88;4357347;32;33802;-69
2023/10/21 11:22:46;;;;;;;10.77;3.03;;;;;;;20.16;72.73;98404.62;4360007;32;33866;-70
2023/10/21 11:25:14;;;;;;;13.10;2.15;;;;;;;19.96;73.50;98393.72;4368393;32;33512;-71
2023/10/21 11:27:43;;;;;;;9.02;1.95;;;;;;;20.32;72.34;98391.63;4369467;32;33730;-69
2023/10/21 11:30:11;;;;;;;3.62;1.70;;;;;;;20.23;72.53;98393.75;4368779;32;33266;-70
2023/10/21 11:32:39;;;;;;;9.52;2.17;;;;;;;20.06;72.61;98406.91;4360708;32;33773;-69
2023/10/21 11:35:11;;;;;;;12.10;1.75;;;;;;;20.18;71.97;98409.84;4370316;32;34162;-69